EXS52U LERS-EGSS
Flight info
| Callsign | EXS52U |
|---|---|
| Flight time | N/A |
| Altitude | 34000 |
| Route | NATPI DCT EVNAM DCT TUPAR UN861 DIKRO UM185 TELTU |
| Aircraft | A321/M-SDE3FGHIRWY/LB1 |
Departure
| Time | 2026-05-04 09:46 |
|---|---|
| Airport | Reus Airport (LERS) |
Arrival
| Time | N/A |
|---|---|
| Airport | London Stansted Airport (EGSS) |
| Time | Latitude | Longitude | Altitude | Speed | Heading |
|---|---|---|---|---|---|
| 2026-05-04 09:32 | 41.14742 | 1.15810 | 240 ft | 0 kts | 339° |
| 2026-05-04 09:40 | 41.14725 | 1.15819 | 241 ft | 4 kts | 336° |
| 2026-05-04 09:40 | 41.14700 | 1.15834 | 241 ft | 4 kts | 330° |
| 2026-05-04 09:41 | 41.14677 | 1.15853 | 241 ft | 4 kts | 322° |
| 2026-05-04 09:42 | 41.14660 | 1.15873 | 241 ft | 0 kts | 316° |
| 2026-05-04 09:43 | 41.14664 | 1.15860 | 241 ft | 8 kts | 285° |
| 2026-05-04 09:43 | 41.14626 | 1.15724 | 240 ft | 17 kts | 248° |
| 2026-05-04 09:43 | 41.14580 | 1.15584 | 240 ft | 16 kts | 233° |
| 2026-05-04 09:43 | 41.14491 | 1.15592 | 240 ft | 13 kts | 159° |
| 2026-05-04 09:44 | 41.14429 | 1.15656 | 240 ft | 11 kts | 94° |
| 2026-05-04 09:44 | 41.14436 | 1.15684 | 240 ft | 0 kts | 68° |
| 2026-05-04 09:46 | 41.15111 | 1.18068 | 299 ft | 170 kts | 72° |
| 2026-05-04 09:46 | 41.15548 | 1.19550 | 884 ft | 171 kts | 69° |
| 2026-05-04 09:46 | 41.15990 | 1.21021 | 1592 ft | 173 kts | 68° |
| 2026-05-04 09:47 | 41.16460 | 1.22539 | 2004 ft | 186 kts | 68° |
| 2026-05-04 09:47 | 41.16979 | 1.24219 | 2201 ft | 208 kts | 69° |
| 2026-05-04 09:49 | 41.22539 | 1.38532 | 5631 ft | 282 kts | 18° |
| 2026-05-04 09:49 | 41.24470 | 1.38753 | 5985 ft | 279 kts | 344° |
| 2026-05-04 09:49 | 41.26106 | 1.37538 | 6517 ft | 275 kts | 309° |
| 2026-05-04 09:51 | 41.30382 | 1.23182 | 10320 ft | 308 kts | 289° |
| 2026-05-04 09:51 | 41.31308 | 1.20509 | 10517 ft | 328 kts | 297° |
| 2026-05-04 09:51 | 41.32735 | 1.18079 | 11020 ft | 341 kts | 312° |
| 2026-05-04 09:51 | 41.34651 | 1.16161 | 11610 ft | 350 kts | 327° |
| 2026-05-04 09:52 | 41.36933 | 1.14954 | 12210 ft | 359 kts | 343° |
| 2026-05-04 09:52 | 41.39432 | 1.14530 | 12806 ft | 366 kts | 353° |
| 2026-05-04 09:52 | 41.41985 | 1.14277 | 13439 ft | 369 kts | 353° |
| 2026-05-04 09:52 | 41.44561 | 1.14016 | 14031 ft | 373 kts | 352° |
| 2026-05-04 09:53 | 41.47154 | 1.13746 | 14570 ft | 376 kts | 352° |
| 2026-05-04 09:53 | 41.49777 | 1.13468 | 15117 ft | 379 kts | 352° |
| 2026-05-04 09:53 | 41.52416 | 1.13193 | 15663 ft | 383 kts | 353° |
| 2026-05-04 09:53 | 41.55095 | 1.13306 | 16174 ft | 390 kts | 5° |
| 2026-05-04 09:54 | 41.57783 | 1.14054 | 16683 ft | 396 kts | 11° |
| 2026-05-04 09:54 | 41.60469 | 1.14937 | 17190 ft | 399 kts | 11° |
| 2026-05-04 09:54 | 41.63180 | 1.15826 | 17687 ft | 403 kts | 11° |
| 2026-05-04 09:54 | 41.65919 | 1.16718 | 18172 ft | 406 kts | 11° |
| 2026-05-04 09:55 | 41.68680 | 1.17614 | 18608 ft | 410 kts | 11° |
| 2026-05-04 09:55 | 41.71464 | 1.18518 | 19020 ft | 413 kts | 11° |
| 2026-05-04 09:55 | 41.74229 | 1.19418 | 19416 ft | 416 kts | 11° |
| 2026-05-04 09:55 | 41.77054 | 1.20341 | 19811 ft | 420 kts | 11° |
| 2026-05-04 09:56 | 41.79902 | 1.21273 | 20188 ft | 423 kts | 11° |
| 2026-05-04 09:56 | 41.82771 | 1.22209 | 20556 ft | 426 kts | 11° |
| 2026-05-04 09:56 | 41.85659 | 1.23152 | 20917 ft | 429 kts | 11° |
| 2026-05-04 09:56 | 41.88572 | 1.24109 | 21279 ft | 432 kts | 10° |
| 2026-05-04 09:57 | 41.91501 | 1.25074 | 21642 ft | 435 kts | 10° |
| 2026-05-04 09:57 | 41.94455 | 1.26048 | 21994 ft | 438 kts | 10° |
| 2026-05-04 09:57 | 41.97426 | 1.27024 | 22343 ft | 441 kts | 10° |
| 2026-05-04 09:57 | 42.00425 | 1.28008 | 22696 ft | 444 kts | 9° |
| 2026-05-04 09:58 | 42.03440 | 1.28997 | 23048 ft | 447 kts | 9° |
| 2026-05-04 09:58 | 42.06476 | 1.29994 | 23394 ft | 450 kts | 9° |
| 2026-05-04 09:58 | 42.09528 | 1.30995 | 23721 ft | 453 kts | 9° |
| 2026-05-04 10:00 | 42.31149 | 1.32815 | 25935 ft | 448 kts | 343° |
| 2026-05-04 10:00 | 42.34232 | 1.32120 | 26189 ft | 450 kts | 343° |
| 2026-05-04 10:02 | 42.56191 | 1.27218 | 28265 ft | 464 kts | 344° |
| 2026-05-04 10:04 | 42.78914 | 1.22466 | 30184 ft | 482 kts | 349° |
| 2026-05-04 10:04 | 42.82259 | 1.22057 | 30390 ft | 484 kts | 350° |
| 2026-05-04 10:04 | 42.85617 | 1.21681 | 30582 ft | 485 kts | 350° |
| 2026-05-04 10:04 | 42.88982 | 1.21296 | 30792 ft | 485 kts | 349° |
| 2026-05-04 10:05 | 42.92335 | 1.20880 | 31086 ft | 484 kts | 349° |
| 2026-05-04 10:05 | 42.95683 | 1.20436 | 31346 ft | 483 kts | 348° |
| 2026-05-04 10:05 | 42.99023 | 1.19971 | 31603 ft | 482 kts | 348° |
| 2026-05-04 10:05 | 43.02367 | 1.19491 | 31877 ft | 482 kts | 348° |
| 2026-05-04 10:06 | 43.05702 | 1.19008 | 32144 ft | 482 kts | 348° |
| 2026-05-04 10:06 | 43.09035 | 1.18530 | 32389 ft | 482 kts | 348° |
| 2026-05-04 10:06 | 43.12373 | 1.18058 | 32631 ft | 482 kts | 348° |
| 2026-05-04 10:08 | 43.31224 | 1.15460 | 33959 ft | 477 kts | 348° |
| 2026-05-04 10:08 | 43.34502 | 1.15003 | 33972 ft | 471 kts | 348° |
| 2026-05-04 10:08 | 43.40994 | 1.14092 | 33971 ft | 468 kts | 348° |
| 2026-05-04 10:09 | 43.47470 | 1.13188 | 33969 ft | 468 kts | 348° |
| 2026-05-04 10:09 | 43.53949 | 1.12283 | 33974 ft | 468 kts | 348° |
| 2026-05-04 10:10 | 43.60319 | 1.11033 | 33973 ft | 460 kts | 338° |
| 2026-05-04 10:10 | 43.66201 | 1.07909 | 33972 ft | 451 kts | 329° |
| 2026-05-04 10:11 | 43.71966 | 1.04452 | 33975 ft | 451 kts | 330° |
| 2026-05-04 10:11 | 43.77734 | 1.01011 | 33969 ft | 452 kts | 330° |
| 2026-05-04 10:12 | 43.83508 | 0.97558 | 33966 ft | 452 kts | 330° |
| 2026-05-04 10:12 | 43.89284 | 0.94085 | 33970 ft | 452 kts | 329° |
| 2026-05-04 10:13 | 43.93786 | 0.91367 | 33970 ft | 452 kts | 330° |
| 2026-05-04 10:13 | 43.99765 | 0.87745 | 33972 ft | 452 kts | 330° |
| 2026-05-04 10:14 | 44.05508 | 0.84278 | 33973 ft | 453 kts | 330° |
| 2026-05-04 10:16 | 44.28624 | 0.70216 | 33971 ft | 454 kts | 330° |
| 2026-05-04 10:16 | 44.34414 | 0.66672 | 33966 ft | 454 kts | 330° |
| 2026-05-04 10:17 | 44.40195 | 0.63115 | 33971 ft | 454 kts | 330° |
| 2026-05-04 10:19 | 44.63348 | 0.48859 | 33969 ft | 455 kts | 330° |
| 2026-05-04 10:19 | 44.69104 | 0.45293 | 33968 ft | 455 kts | 330° |
| 2026-05-04 10:20 | 44.74903 | 0.41686 | 33973 ft | 456 kts | 330° |
| 2026-05-04 10:20 | 44.80704 | 0.38078 | 33967 ft | 456 kts | 330° |
| 2026-05-04 10:21 | 44.86508 | 0.34460 | 33971 ft | 456 kts | 330° |
| 2026-05-04 10:21 | 44.92314 | 0.30831 | 33967 ft | 457 kts | 330° |
| 2026-05-04 10:22 | 45.01036 | 0.25351 | 33967 ft | 457 kts | 330° |
| 2026-05-04 10:23 | 45.06850 | 0.21694 | 33963 ft | 458 kts | 330° |
| 2026-05-04 10:25 | 45.30117 | 0.06979 | 33964 ft | 459 kts | 330° |
| 2026-05-04 10:25 | 45.35962 | 0.03281 | 33961 ft | 459 kts | 330° |
| 2026-05-04 10:26 | 45.41797 | -0.00437 | 33964 ft | 459 kts | 330° |
| 2026-05-04 10:26 | 45.47636 | -0.04172 | 33963 ft | 460 kts | 330° |
| 2026-05-04 10:27 | 45.53467 | -0.07905 | 33974 ft | 460 kts | 330° |
| 2026-05-04 10:27 | 45.59257 | -0.11626 | 33973 ft | 459 kts | 330° |
| 2026-05-04 10:28 | 45.65084 | -0.15379 | 33978 ft | 459 kts | 330° |
| 2026-05-04 10:28 | 45.70909 | -0.19130 | 33973 ft | 459 kts | 330° |
| 2026-05-04 10:29 | 45.76734 | -0.22892 | 33976 ft | 459 kts | 330° |
| 2026-05-04 10:29 | 45.82544 | -0.26657 | 33972 ft | 458 kts | 330° |
| 2026-05-04 10:30 | 45.88351 | -0.30433 | 33969 ft | 458 kts | 330° |
| 2026-05-04 10:30 | 45.94156 | -0.34210 | 33972 ft | 458 kts | 330° |
| 2026-05-04 10:31 | 45.99962 | -0.37990 | 33979 ft | 458 kts | 330° |
| 2026-05-04 10:32 | 46.20224 | -0.51263 | 33981 ft | 458 kts | 330° |
| 2026-05-04 10:33 | 46.26017 | -0.55086 | 33972 ft | 458 kts | 330° |
| 2026-05-04 10:33 | 46.31813 | -0.58908 | 33972 ft | 458 kts | 330° |
| 2026-05-04 10:34 | 46.37607 | -0.62740 | 33970 ft | 458 kts | 330° |
| 2026-05-04 10:34 | 46.43555 | -0.66121 | 33963 ft | 464 kts | 342° |
| 2026-05-04 10:35 | 46.49986 | -0.67467 | 33960 ft | 469 kts | 350° |
| 2026-05-04 10:35 | 46.56472 | -0.68535 | 33959 ft | 469 kts | 349° |
| 2026-05-04 10:36 | 46.62960 | -0.69628 | 33962 ft | 469 kts | 349° |
| 2026-05-04 10:36 | 46.69451 | -0.70729 | 33959 ft | 470 kts | 349° |
| 2026-05-04 10:37 | 46.75948 | -0.71826 | 33966 ft | 470 kts | 350° |
| 2026-05-04 10:37 | 46.82447 | -0.72929 | 33970 ft | 471 kts | 349° |
| 2026-05-04 10:39 | 47.05189 | -0.76812 | 33989 ft | 471 kts | 349° |
| 2026-05-04 10:40 | 47.11704 | -0.77930 | 33991 ft | 471 kts | 349° |
| 2026-05-04 10:40 | 47.18204 | -0.79053 | 33990 ft | 471 kts | 349° |
| 2026-05-04 10:41 | 47.24704 | -0.80171 | 33992 ft | 470 kts | 349° |
| 2026-05-04 10:41 | 47.31210 | -0.81280 | 33990 ft | 470 kts | 350° |
| 2026-05-04 10:42 | 47.37704 | -0.82399 | 33983 ft | 470 kts | 349° |
| 2026-05-04 10:42 | 47.44193 | -0.83532 | 33981 ft | 469 kts | 349° |
| 2026-05-04 10:43 | 47.50673 | -0.84661 | 33975 ft | 469 kts | 350° |
| 2026-05-04 10:45 | 47.76244 | -0.91200 | 33966 ft | 466 kts | 346° |
| 2026-05-04 10:45 | 47.82631 | -0.92887 | 33966 ft | 466 kts | 346° |
| 2026-05-04 10:46 | 47.89024 | -0.94568 | 33967 ft | 466 kts | 346° |
| 2026-05-04 10:46 | 47.95410 | -0.96270 | 33966 ft | 466 kts | 346° |
| 2026-05-04 10:47 | 48.01794 | -0.97988 | 33962 ft | 466 kts | 346° |
| 2026-05-04 10:47 | 48.08182 | -0.99719 | 33959 ft | 466 kts | 346° |
| 2026-05-04 10:49 | 48.33726 | -1.06631 | 33971 ft | 466 kts | 346° |
| 2026-05-04 10:50 | 48.40103 | -1.08365 | 33972 ft | 466 kts | 346° |
| 2026-05-04 10:52 | 48.65525 | -1.15347 | 33983 ft | 464 kts | 346° |
| 2026-05-04 10:52 | 48.71878 | -1.17110 | 33981 ft | 464 kts | 346° |
| 2026-05-04 10:54 | 48.97310 | -1.24162 | 34001 ft | 464 kts | 346° |
| 2026-05-04 10:56 | 49.21624 | -1.31011 | 33995 ft | 464 kts | 346° |
| 2026-05-04 10:57 | 49.28998 | -1.33081 | 33996 ft | 464 kts | 346° |
| 2026-05-04 10:57 | 49.35346 | -1.34872 | 34007 ft | 464 kts | 346° |
| 2026-05-04 10:58 | 49.40666 | -1.36386 | 34015 ft | 464 kts | 346° |
| 2026-05-04 10:58 | 49.47029 | -1.38203 | 34022 ft | 464 kts | 346° |
| 2026-05-04 10:59 | 49.53380 | -1.40014 | 34025 ft | 464 kts | 346° |
| 2026-05-04 10:59 | 49.59776 | -1.41469 | 34032 ft | 468 kts | 355° |
| 2026-05-04 11:00 | 49.66306 | -1.41028 | 34030 ft | 470 kts | 1° |
| 2026-05-04 11:02 | 49.92405 | -1.38717 | 34030 ft | 471 kts | 1° |
| 2026-05-04 11:05 | 50.41071 | -1.27791 | 34024 ft | 471 kts | 8° |
| 2026-05-04 11:06 | 50.47525 | -1.26059 | 34023 ft | 471 kts | 13° |
| 2026-05-04 11:06 | 50.53573 | -1.22180 | 34019 ft | 471 kts | 32° |
| 2026-05-04 11:10 | 50.89493 | -0.89996 | 34016 ft | 471 kts | 18° |
| 2026-05-04 11:12 | 51.14394 | -0.77042 | 34039 ft | 470 kts | 18° |
| 2026-05-04 11:12 | 51.20590 | -0.73792 | 34042 ft | 470 kts | 18° |
| 2026-05-04 11:13 | 51.26762 | -0.70554 | 34046 ft | 469 kts | 18° |
| 2026-05-04 11:13 | 51.33000 | -0.67274 | 34043 ft | 469 kts | 18° |
| 2026-05-04 11:14 | 51.38950 | -0.64144 | 34038 ft | 468 kts | 18° |
| 2026-05-04 11:16 | 51.63648 | -0.51028 | 34035 ft | 466 kts | 18° |
| 2026-05-04 11:16 | 51.69807 | -0.47725 | 34082 ft | 466 kts | 18° |
| 2026-05-04 11:17 | 51.76047 | -0.44994 | 34083 ft | 464 kts | 5° |
| 2026-05-04 11:19 | 51.96342 | -0.57293 | 34052 ft | 452 kts | 326° |
| 2026-05-04 11:19 | 51.99039 | -0.59928 | 34053 ft | 452 kts | 326° |
| 2026-05-04 11:19 | 52.04454 | -0.65236 | 33411 ft | 458 kts | 326° |
| 2026-05-04 11:20 | 52.07161 | -0.67897 | 32188 ft | 464 kts | 326° |
| 2026-05-04 11:20 | 52.09895 | -0.70577 | 31947 ft | 451 kts | 326° |
| 2026-05-04 11:20 | 52.12562 | -0.73188 | 31520 ft | 445 kts | 326° |
| 2026-05-04 11:20 | 52.15206 | -0.75788 | 30953 ft | 442 kts | 326° |
| 2026-05-04 11:22 | 52.32953 | -0.93398 | 27199 ft | 408 kts | 326° |
| 2026-05-04 11:22 | 52.35361 | -0.95798 | 26724 ft | 402 kts | 326° |
| 2026-05-04 11:23 | 52.37731 | -0.98161 | 26263 ft | 396 kts | 326° |
| 2026-05-04 11:23 | 52.40065 | -1.00494 | 25799 ft | 390 kts | 326° |
| 2026-05-04 11:24 | 52.53364 | -1.13844 | 23269 ft | 361 kts | 326° |
| 2026-05-04 11:25 | 52.55490 | -1.15990 | 22866 ft | 357 kts | 326° |
| 2026-05-04 11:25 | 52.57605 | -1.18124 | 22463 ft | 355 kts | 326° |
| 2026-05-04 11:25 | 52.59705 | -1.20241 | 22077 ft | 353 kts | 326° |
| 2026-05-04 11:26 | 52.63866 | -1.24444 | 21248 ft | 349 kts | 326° |
| 2026-05-04 11:27 | 52.78424 | -1.39239 | 18257 ft | 357 kts | 327° |
| 2026-05-04 11:28 | 52.80528 | -1.41390 | 17772 ft | 355 kts | 327° |
| 2026-05-04 11:28 | 52.82625 | -1.43534 | 17315 ft | 352 kts | 327° |
| 2026-05-04 11:28 | 52.84702 | -1.45659 | 16870 ft | 350 kts | 327° |
| 2026-05-04 11:28 | 52.86764 | -1.47773 | 16426 ft | 347 kts | 327° |
| 2026-05-04 11:29 | 52.88813 | -1.49878 | 15989 ft | 345 kts | 327° |
| 2026-05-04 11:29 | 52.90842 | -1.51962 | 15537 ft | 342 kts | 327° |
| 2026-05-04 11:29 | 52.92859 | -1.54036 | 15106 ft | 340 kts | 327° |
| 2026-05-04 11:29 | 52.94864 | -1.56097 | 14677 ft | 338 kts | 327° |
| 2026-05-04 11:31 | 53.07743 | -1.71534 | 11712 ft | 317 kts | 309° |
| 2026-05-04 11:33 | 53.17042 | -1.89591 | 9446 ft | 285 kts | 309° |
| 2026-05-04 11:33 | 53.18322 | -1.92086 | 9029 ft | 282 kts | 309° |
| 2026-05-04 11:33 | 53.19590 | -1.94562 | 8616 ft | 280 kts | 309° |
| 2026-05-04 11:34 | 53.20850 | -1.97024 | 8267 ft | 275 kts | 309° |
| 2026-05-04 11:34 | 53.22067 | -1.99396 | 8127 ft | 263 kts | 309° |
| 2026-05-04 11:34 | 53.23113 | -2.01825 | 7884 ft | 254 kts | 295° |
| 2026-05-04 11:34 | 53.23649 | -2.04554 | 8032 ft | 250 kts | 280° |
| 2026-05-04 11:35 | 53.23729 | -2.07470 | 7657 ft | 253 kts | 266° |
| 2026-05-04 11:35 | 53.23623 | -2.10377 | 7229 ft | 250 kts | 266° |
| 2026-05-04 11:35 | 53.23511 | -2.13270 | 6839 ft | 249 kts | 266° |
| 2026-05-04 11:35 | 53.23400 | -2.16110 | 6492 ft | 248 kts | 266° |
| 2026-05-04 11:36 | 53.23289 | -2.19013 | 6144 ft | 244 kts | 267° |
| 2026-05-04 11:36 | 53.23186 | -2.21707 | 5984 ft | 220 kts | 267° |
| 2026-05-04 11:36 | 53.23093 | -2.24148 | 5797 ft | 205 kts | 267° |
| 2026-05-04 11:36 | 53.23005 | -2.26499 | 5422 ft | 202 kts | 268° |
| 2026-05-04 11:37 | 53.22916 | -2.28828 | 5042 ft | 201 kts | 268° |
| 2026-05-04 11:37 | 53.22827 | -2.31120 | 4643 ft | 200 kts | 268° |
| 2026-05-04 11:37 | 53.22738 | -2.33433 | 4289 ft | 199 kts | 268° |
| 2026-05-04 11:37 | 53.22649 | -2.35737 | 3997 ft | 199 kts | 267° |
| 2026-05-04 11:38 | 53.22559 | -2.38032 | 3811 ft | 198 kts | 268° |
| 2026-05-04 11:38 | 53.22470 | -2.40322 | 3735 ft | 195 kts | 268° |
| 2026-05-04 11:38 | 53.22658 | -2.42442 | 3634 ft | 179 kts | 294° |
| 2026-05-04 11:38 | 53.23356 | -2.44042 | 3550 ft | 166 kts | 320° |
| 2026-05-04 11:39 | 53.24348 | -2.44950 | 3476 ft | 163 kts | 343° |
| 2026-05-04 11:39 | 53.25482 | -2.45117 | 3097 ft | 168 kts | 8° |
| 2026-05-04 11:40 | 53.30165 | -2.37321 | 2337 ft | 153 kts | 50° |
| 2026-05-04 11:41 | 53.30863 | -2.35881 | 1642 ft | 165 kts | 50° |
| 2026-05-04 11:41 | 53.31601 | -2.34335 | 860 ft | 173 kts | 50° |
| 2026-05-04 11:41 | 53.32343 | -2.32822 | 523 ft | 160 kts | 51° |
| 2026-05-04 11:41 | 53.33005 | -2.31463 | 316 ft | 145 kts | 49° |
| 2026-05-04 11:42 | 53.33624 | -2.30188 | 263 ft | 129 kts | 51° |
| 2026-05-04 11:42 | 53.34200 | -2.29001 | 735 ft | 143 kts | 50° |
| 2026-05-04 11:42 | 53.34861 | -2.27673 | 1538 ft | 159 kts | 50° |
| 2026-05-04 11:42 | 53.35647 | -2.26106 | 2064 ft | 200 kts | 50° |
| 2026-05-04 11:43 | 53.36349 | -2.23921 | 2005 ft | 218 kts | 77° |
| 2026-05-04 11:43 | 53.36203 | -2.21433 | 2008 ft | 219 kts | 111° |
| 2026-05-04 11:43 | 53.35232 | -2.19499 | 2013 ft | 220 kts | 144° |
| 2026-05-04 11:43 | 53.33923 | -2.18165 | 2011 ft | 221 kts | 150° |
| 2026-05-04 11:44 | 53.32580 | -2.16909 | 2017 ft | 221 kts | 150° |
| 2026-05-04 11:44 | 53.31236 | -2.15662 | 2011 ft | 221 kts | 150° |
| 2026-05-04 11:44 | 53.29879 | -2.14446 | 2006 ft | 222 kts | 155° |
| 2026-05-04 11:44 | 53.28404 | -2.14031 | 2004 ft | 209 kts | 184° |
| 2026-05-04 11:45 | 53.27069 | -2.14761 | 2207 ft | 201 kts | 212° |
| 2026-05-04 11:45 | 53.26362 | -2.15747 | 2379 ft | 199 kts | 229° |
| 2026-05-04 11:45 | 53.25715 | -2.17757 | 2633 ft | 197 kts | 256° |
| 2026-05-04 11:45 | 53.25477 | -2.20011 | 2887 ft | 198 kts | 262° |
| 2026-05-04 11:46 | 53.25252 | -2.22273 | 2992 ft | 198 kts | 261° |
| 2026-05-04 11:46 | 53.25024 | -2.24536 | 3013 ft | 197 kts | 261° |
| 2026-05-04 11:46 | 53.24725 | -2.27457 | 3001 ft | 179 kts | 261° |
| 2026-05-04 11:46 | 53.24588 | -2.28794 | 3001 ft | 168 kts | 261° |
| 2026-05-04 11:47 | 53.24393 | -2.30671 | 3001 ft | 162 kts | 261° |
| 2026-05-04 11:47 | 53.24202 | -2.32509 | 3009 ft | 159 kts | 261° |
| 2026-05-04 11:47 | 53.24014 | -2.34323 | 3006 ft | 158 kts | 261° |
| 2026-05-04 11:47 | 53.23828 | -2.36116 | 2965 ft | 155 kts | 261° |
| 2026-05-04 11:48 | 53.23646 | -2.37932 | 2592 ft | 162 kts | 264° |
| 2026-05-04 11:48 | 53.23741 | -2.39782 | 2272 ft | 162 kts | 285° |
| 2026-05-04 11:48 | 53.24193 | -2.41490 | 2036 ft | 160 kts | 306° |
| 2026-05-04 11:48 | 53.25020 | -2.42716 | 2000 ft | 161 kts | 332° |
| 2026-05-04 11:49 | 53.26092 | -2.43200 | 2018 ft | 161 kts | 359° |
| 2026-05-04 11:49 | 53.27179 | -2.42836 | 1981 ft | 161 kts | 25° |
| 2026-05-04 11:49 | 53.28047 | -2.41685 | 1864 ft | 160 kts | 51° |
| 2026-05-04 11:49 | 53.28750 | -2.40235 | 1668 ft | 160 kts | 51° |
| 2026-05-04 11:50 | 53.29445 | -2.38780 | 1453 ft | 160 kts | 52° |
| 2026-05-04 11:50 | 53.30142 | -2.37328 | 1219 ft | 160 kts | 50° |
| 2026-05-04 11:50 | 53.30853 | -2.35914 | 974 ft | 159 kts | 50° |
| 2026-05-04 11:50 | 53.31552 | -2.34487 | 747 ft | 157 kts | 50° |
| 2026-05-04 11:51 | 53.32240 | -2.33056 | 592 ft | 158 kts | 51° |
| 2026-05-04 11:51 | 53.32926 | -2.31629 | 385 ft | 156 kts | 50° |
| 2026-05-04 11:51 | 53.33599 | -2.30224 | 255 ft | 146 kts | 50° |
| 2026-05-04 11:51 | 53.34192 | -2.29020 | 233 ft | 115 kts | 50° |
| 2026-05-04 11:52 | 53.34466 | -2.28455 | 230 ft | 42 kts | 50° |
| 2026-05-04 11:52 | 53.34708 | -2.28156 | 235 ft | 26 kts | 19° |
| 2026-05-04 11:52 | 53.34838 | -2.28075 | 233 ft | 20 kts | 20° |
| 2026-05-04 11:52 | 53.34938 | -2.27929 | 233 ft | 20 kts | 52° |
| 2026-05-04 11:53 | 53.34985 | -2.27737 | 233 ft | 14 kts | 73° |
| 2026-05-04 11:53 | 53.35032 | -2.27693 | 233 ft | 7 kts | 15° |
| 2026-05-04 11:53 | 53.35072 | -2.27656 | 234 ft | 6 kts | 46° |
| 2026-05-04 11:53 | 53.35107 | -2.27583 | 233 ft | 10 kts | 51° |
| 2026-05-04 11:55 | 53.35344 | -2.27192 | 233 ft | 0 kts | 358° |
| 2026-05-04 11:56 | 53.35346 | -2.27192 | 233 ft | 2 kts | 358° |
| 2026-05-04 11:56 | 53.35450 | -2.27286 | 240 ft | 29 kts | 319° |
| 2026-05-04 11:57 | 53.35615 | -2.27515 | 233 ft | 24 kts | 321° |
| 2026-05-04 11:57 | 53.35655 | -2.27569 | 233 ft | 0 kts | 321° |
| 2026-05-04 11:59 | 53.35695 | -2.27521 | 233 ft | 15 kts | 52° |
| 2026-05-04 11:59 | 53.35759 | -2.27382 | 233 ft | 15 kts | 51° |
| 2026-05-04 11:59 | 53.35824 | -2.27245 | 233 ft | 15 kts | 48° |
| 2026-05-04 11:59 | 53.35896 | -2.27227 | 233 ft | 10 kts | 350° |
| 2026-05-04 12:00 | 53.35936 | -2.27236 | 233 ft | 4 kts | 359° |
| 2026-05-04 12:00 | 53.35952 | -2.27213 | 235 ft | 2 kts | 63° |
| 2026-05-04 12:00 | 53.35952 | -2.27181 | 233 ft | 3 kts | 92° |
| 2026-05-04 12:00 | 53.35951 | -2.27150 | 233 ft | 2 kts | 89° |
| 2026-05-04 12:01 | 53.35952 | -2.27139 | 233 ft | 0 kts | 89° |
| 2026-05-04 12:01 | 53.35952 | -2.27137 | 233 ft | 0 kts | 89° |